createdAt,value
2023-01-19T00:01:10.903Z,99650.69
2023-01-19T00:03:41.018Z,99660.16
2023-01-19T00:06:12.100Z,99652.97
2023-01-19T00:08:44.778Z,99656.53
2023-01-19T00:11:17.591Z,99661.72
2023-01-19T00:13:50.658Z,99664.34
2023-01-19T00:16:23.310Z,99663.25
2023-01-19T00:18:55.756Z,99666.44
2023-01-19T00:21:25.877Z,99670.91
2023-01-19T00:23:55.910Z,99677.88
2023-01-19T00:26:28.433Z,99689.47
2023-01-19T00:29:04.830Z,99688.00
2023-01-19T00:31:34.961Z,99684.69
2023-01-19T00:34:05.152Z,99692.31
2023-01-19T00:36:35.422Z,99697.16
2023-01-19T00:39:05.562Z,99690.13
2023-01-19T00:41:50.702Z,99691.41
2023-01-19T00:44:20.853Z,99694.47
2023-01-19T00:46:50.822Z,99695.31
2023-01-19T00:49:20.879Z,99700.97
2023-01-19T00:51:50.861Z,99701.91
2023-01-19T00:54:21.184Z,99710.06
2023-01-19T00:56:54.229Z,99708.28
2023-01-19T00:59:25.837Z,99712.75
2023-01-19T01:01:56.036Z,99711.09
2023-01-19T01:04:26.383Z,99716.66
2023-01-19T01:06:56.403Z,99722.56
2023-01-19T01:09:26.467Z,99728.50
2023-01-19T01:12:00.561Z,99726.59
2023-01-19T01:14:30.819Z,99730.03
2023-01-19T01:17:03.723Z,99720.25
2023-01-19T01:19:33.778Z,99719.63
2023-01-19T01:22:03.945Z,99727.31
2023-01-19T01:24:33.987Z,99723.78
2023-01-19T01:27:07.291Z,99722.13
2023-01-19T01:29:46.540Z,99724.13
2023-01-19T01:32:16.861Z,99730.16
2023-01-19T01:34:46.839Z,99727.44
2023-01-19T01:37:16.789Z,99732.66
2023-01-19T01:39:46.811Z,99734.03
2023-01-19T01:42:22.071Z,99729.03
2023-01-19T01:44:55.537Z,99734.56
2023-01-19T01:47:32.642Z,99729.91
2023-01-19T01:50:13.850Z,99730.13
2023-01-19T01:53:07.656Z,99730.97
2023-01-19T01:55:43.052Z,99734.50
2023-01-19T01:58:17.886Z,99736.59
2023-01-19T02:01:00.330Z,99736.94
2023-01-19T02:03:32.676Z,99729.72
2023-01-19T02:06:08.270Z,99732.66
2023-01-19T02:08:57.386Z,99737.94
2023-01-19T02:11:40.443Z,99735.22
2023-01-19T02:14:13.295Z,99746.66
2023-01-19T02:16:43.549Z,99735.75
2023-01-19T02:19:19.841Z,99730.47
2023-01-19T02:21:56.008Z,99729.00
2023-01-19T02:24:29.457Z,99727.91
2023-01-19T02:27:00.778Z,99725.81
2023-01-19T02:29:31.909Z,99725.41
2023-01-19T02:32:03.265Z,99732.72
2023-01-19T02:34:33.526Z,99729.09
2023-01-19T02:37:07.708Z,99720.56
2023-01-19T02:39:45.893Z,99723.78
2023-01-19T02:42:22.327Z,99726.09
2023-01-19T02:44:55.640Z,99722.13
2023-01-19T02:47:26.097Z,99722.34
2023-01-19T02:49:59.481Z,99729.41
2023-01-19T02:52:30.588Z,99725.47
2023-01-19T02:55:18.220Z,99731.78
2023-01-19T02:57:58.964Z,99726.38
2023-01-19T03:00:40.093Z,99728.06
2023-01-19T03:03:30.866Z,99728.16
2023-01-19T03:06:28.707Z,99724.94
2023-01-19T03:09:05.014Z,99719.03
2023-01-19T03:11:42.965Z,99722.34
2023-01-19T03:14:19.566Z,99725.88
2023-01-19T03:16:55.159Z,99735.44
2023-01-19T03:19:27.716Z,99726.94
2023-01-19T03:22:01.584Z,99724.13
2023-01-19T03:24:37.819Z,99729.44
2023-01-19T03:27:15.106Z,99739.72
2023-01-19T03:29:50.952Z,99738.56
2023-01-19T03:32:25.094Z,99736.28
2023-01-19T03:34:57.487Z,99745.53
2023-01-19T03:37:30.215Z,99740.13
2023-01-19T03:40:00.698Z,99741.25
2023-01-19T03:42:33.604Z,99748.31
2023-01-19T03:45:04.592Z,99739.91
2023-01-19T03:47:35.394Z,99734.06
2023-01-19T03:50:10.095Z,99736.88
2023-01-19T03:52:40.068Z,99744.56
2023-01-19T03:55:10.476Z,99743.44
2023-01-19T03:57:43.143Z,99745.63
2023-01-19T04:00:15.489Z,99748.31
2023-01-19T04:02:45.506Z,99753.13
2023-01-19T04:05:15.598Z,99767.16
2023-01-19T04:07:45.843Z,99756.03
2023-01-19T04:10:16.384Z,99759.56
2023-01-19T04:12:49.243Z,99753.84
2023-01-19T04:15:19.577Z,99753.13
2023-01-19T04:17:50.851Z,99759.22
2023-01-19T04:20:21.788Z,99769.00
2023-01-19T04:22:51.946Z,99759.53
2023-01-19T04:25:22.005Z,99762.53
2023-01-19T04:27:58.466Z,99765.25
2023-01-19T04:30:28.686Z,99768.25
2023-01-19T04:32:59.027Z,99770.22
2023-01-19T04:35:29.271Z,99769.59
2023-01-19T04:37:59.375Z,99775.09
2023-01-19T04:40:29.420Z,99771.16
2023-01-19T04:43:02.340Z,99772.03
2023-01-19T04:45:32.737Z,99774.63
2023-01-19T04:48:04.238Z,99765.94
2023-01-19T04:50:34.890Z,99772.44
2023-01-19T04:53:04.835Z,99767.25
2023-01-19T04:55:34.799Z,99769.00
2023-01-19T04:58:07.491Z,99764.34
2023-01-19T05:00:37.660Z,99759.06
2023-01-19T05:03:07.689Z,99756.56
2023-01-19T05:05:37.956Z,99762.88
2023-01-19T05:08:08.392Z,99765.28
2023-01-19T05:10:39.171Z,99767.59
2023-01-19T05:13:11.718Z,99765.63
2023-01-19T05:15:52.145Z,99765.28
2023-01-19T05:18:22.147Z,99758.31
2023-01-19T05:20:52.076Z,99770.31
2023-01-19T05:23:32.810Z,99780.06
2023-01-19T05:26:03.858Z,99779.38
2023-01-19T05:28:37.262Z,99777.59
2023-01-19T05:31:07.491Z,99787.88
2023-01-19T05:33:37.473Z,99782.19
2023-01-19T05:36:07.641Z,99779.16
2023-01-19T05:38:37.670Z,99782.25
2023-01-19T05:41:08.133Z,99775.09
2023-01-19T05:43:41.007Z,99776.75
2023-01-19T05:46:15.462Z,99782.78
2023-01-19T05:48:45.497Z,99776.94
2023-01-19T05:51:15.500Z,99783.34
2023-01-19T05:53:45.616Z,99794.50
2023-01-19T05:56:15.593Z,99784.78
2023-01-19T05:58:48.174Z,99795.59
2023-01-19T06:01:18.378Z,99804.22
2023-01-19T06:03:48.791Z,99800.78
2023-01-19T06:06:19.010Z,99805.16
2023-01-19T06:08:49.069Z,99803.19
2023-01-19T06:11:19.150Z,99806.63
2023-01-19T06:13:51.643Z,99800.59
2023-01-19T06:16:21.609Z,99804.41
2023-01-19T06:18:51.621Z,99810.53
2023-01-19T06:21:21.570Z,99814.56
2023-01-19T06:23:51.567Z,99820.03
2023-01-19T06:26:21.524Z,99816.91
2023-01-19T06:28:54.403Z,99808.94
2023-01-19T06:31:24.390Z,99811.72
2023-01-19T06:33:54.437Z,99815.06
2023-01-19T06:36:24.400Z,99815.69
2023-01-19T06:38:54.294Z,99811.22
2023-01-19T06:41:24.298Z,99815.38
2023-01-19T06:43:57.067Z,99818.63
2023-01-19T06:46:27.512Z,99819.16
2023-01-19T06:48:57.857Z,99825.72
2023-01-19T06:51:28.152Z,99819.78
2023-01-19T06:53:58.323Z,99817.78
2023-01-19T06:56:28.419Z,99820.00
2023-01-19T06:59:01.394Z,99825.91
2023-01-19T07:01:32.903Z,99818.13
2023-01-19T07:04:02.850Z,99818.84
2023-01-19T07:06:32.814Z,99826.75
2023-01-19T07:09:07.133Z,99826.84
2023-01-19T07:11:37.135Z,99827.03
2023-01-19T07:14:09.799Z,99829.84
2023-01-19T07:16:39.890Z,99827.34
2023-01-19T07:19:10.814Z,99840.91
2023-01-19T07:21:40.911Z,99846.09
2023-01-19T07:24:11.234Z,99849.44
2023-01-19T07:26:41.279Z,99845.25
2023-01-19T07:29:13.904Z,99847.91
2023-01-19T07:31:43.948Z,99845.22
2023-01-19T07:34:13.967Z,99846.88
2023-01-19T07:36:44.230Z,99851.88
2023-01-19T07:39:14.395Z,99862.72
2023-01-19T07:41:44.442Z,99844.97
2023-01-19T07:44:17.006Z,99854.19
2023-01-19T07:51:13.073Z,99845.84
2023-01-19T08:00:25.494Z,99868.50
2023-01-19T08:03:01.872Z,99864.47
2023-01-19T08:05:32.683Z,99859.31
2023-01-19T08:08:05.161Z,99850.78
2023-01-19T08:10:35.384Z,99863.47
2023-01-19T08:13:08.685Z,99870.03
2023-01-19T08:15:41.468Z,99872.78
2023-01-19T08:18:18.043Z,99876.31
2023-01-19T08:20:52.517Z,99886.06
2023-01-19T08:23:22.442Z,99876.66
2023-01-19T08:25:52.435Z,99876.47
2023-01-19T08:28:26.543Z,99877.91
2023-01-19T08:31:18.326Z,99884.97
2023-01-19T08:33:49.769Z,99875.16
2023-01-19T08:36:19.826Z,99887.25
2023-01-19T08:38:50.458Z,99886.38
2023-01-19T08:41:20.571Z,99885.13
2023-01-19T08:43:50.980Z,99886.91
2023-01-19T08:46:23.559Z,99888.72
2023-01-19T08:48:53.547Z,99880.94
2023-01-19T08:51:23.722Z,99891.81
2023-01-19T08:53:53.769Z,99892.81
2023-01-19T08:56:23.782Z,99895.06
2023-01-19T08:59:08.261Z,99890.53
2023-01-19T09:01:42.139Z,99889.06
2023-01-19T09:04:12.400Z,99886.47
2023-01-19T09:06:42.531Z,99895.34
2023-01-19T09:09:12.758Z,99890.25
2023-01-19T09:11:42.743Z,99898.38
2023-01-19T09:14:12.932Z,99903.59
2023-01-19T09:16:45.669Z,99909.41
2023-01-19T09:19:15.613Z,99908.44
2023-01-19T09:21:45.672Z,99907.94
2023-01-19T09:24:15.586Z,99905.53
2023-01-19T09:26:45.584Z,99915.66
2023-01-19T09:29:15.602Z,99911.91
2023-01-19T09:31:48.911Z,99902.81
2023-01-19T09:34:19.368Z,99902.28
2023-01-19T09:36:50.075Z,99900.69
2023-01-19T09:39:20.435Z,99902.84
2023-01-19T09:42:06.062Z,99914.19
2023-01-19T09:44:41.210Z,99908.84
2023-01-19T09:47:22.951Z,99910.34
2023-01-19T09:49:58.432Z,99902.50
2023-01-19T09:52:28.521Z,99901.06
2023-01-19T09:54:59.807Z,99900.38
2023-01-19T09:57:32.284Z,99896.56
2023-01-19T10:00:02.260Z,99898.78
2023-01-19T10:02:49.660Z,99893.25
2023-01-19T10:05:31.695Z,99897.03
2023-01-19T10:08:21.518Z,99893.28
2023-01-19T10:10:59.588Z,99897.03
2023-01-19T10:13:40.407Z,99900.84
2023-01-19T10:16:24.312Z,99891.63
2023-01-19T10:19:00.788Z,99882.84
2023-01-19T10:21:34.453Z,99887.75
2023-01-19T10:24:09.608Z,99886.34
2023-01-19T10:26:45.330Z,99885.25
2023-01-19T10:29:24.905Z,99891.06
2023-01-19T10:31:55.276Z,99889.69
2023-01-19T10:34:27.879Z,99883.81
2023-01-19T10:37:07.231Z,99876.56
2023-01-19T10:39:38.782Z,99875.31
2023-01-19T10:42:09.391Z,99866.44
2023-01-19T10:44:41.431Z,99865.34
2023-01-19T10:47:19.411Z,99868.69
2023-01-19T10:49:52.430Z,99867.13
2023-01-19T10:52:28.895Z,99865.03
2023-01-19T10:55:00.176Z,99880.06
2023-01-19T10:57:34.537Z,99860.63
2023-01-19T11:00:05.049Z,99870.75
2023-01-19T11:02:36.172Z,99872.06
2023-01-19T11:05:27.257Z,99870.03
2023-01-19T11:07:57.315Z,99882.75
2023-01-19T11:10:30.147Z,99871.69
2023-01-19T11:13:07.662Z,99871.03
2023-01-19T11:15:44.504Z,99872.41
2023-01-19T11:18:27.049Z,99875.63
2023-01-19T11:21:02.689Z,99873.38
2023-01-19T11:23:37.653Z,99870.34
2023-01-19T11:26:09.119Z,99873.94
2023-01-19T11:28:45.040Z,99860.09
2023-01-19T11:31:35.248Z,99863.66
2023-01-19T11:34:07.056Z,99857.97
2023-01-19T11:36:39.977Z,99857.94
2023-01-19T11:39:24.920Z,99852.31
2023-01-19T11:41:57.612Z,99847.41
2023-01-19T11:44:32.431Z,99842.94
2023-01-19T11:47:17.852Z,99839.94
2023-01-19T11:50:03.454Z,99834.06
2023-01-19T11:52:43.444Z,99837.19
2023-01-19T11:55:22.768Z,99846.47
2023-01-19T11:57:56.045Z,99837.59
2023-01-19T12:00:29.367Z,99838.84
2023-01-19T12:03:06.099Z,99842.38
2023-01-19T12:05:48.283Z,99835.69
2023-01-19T12:08:27.155Z,99839.91
2023-01-19T12:11:03.075Z,99841.66
2023-01-19T12:13:34.704Z,99838.38
2023-01-19T12:16:09.997Z,99841.63
2023-01-19T12:18:43.448Z,99849.84
2023-01-19T12:21:15.549Z,99843.00
2023-01-19T12:23:59.192Z,99847.47
2023-01-19T12:26:33.856Z,99831.03
2023-01-19T12:29:13.838Z,99832.72
2023-01-19T12:31:45.630Z,99851.72
2023-01-19T12:34:46.713Z,99837.19
2023-01-19T12:37:43.968Z,99850.38
2023-01-19T12:40:35.719Z,99844.84
2023-01-19T12:43:08.852Z,99848.34
2023-01-19T12:45:40.168Z,99854.38
2023-01-19T12:48:27.616Z,99859.28
2023-01-19T12:50:57.593Z,99875.00
2023-01-19T12:53:27.695Z,99867.25
2023-01-19T12:56:10.118Z,99865.78
2023-01-19T12:58:40.269Z,99860.97
2023-01-19T13:01:21.107Z,99858.38
2023-01-19T13:04:06.745Z,99862.59
2023-01-19T13:07:10.360Z,99860.84
2023-01-19T13:09:43.284Z,99874.69
2023-01-19T13:12:23.152Z,99877.41
2023-01-19T13:14:53.516Z,99875.28
2023-01-19T13:17:33.178Z,99878.69
2023-01-19T13:20:07.912Z,99867.06
2023-01-19T13:22:53.735Z,99873.66
2023-01-19T13:25:36.704Z,99884.44
2023-01-19T13:28:13.560Z,99879.91
2023-01-19T13:31:03.907Z,99876.78
2023-01-19T13:33:45.197Z,99893.06
2023-01-19T13:36:32.605Z,99898.78
2023-01-19T13:39:06.743Z,99890.00
2023-01-19T13:41:41.827Z,99893.88
2023-01-19T13:44:20.204Z,99896.38
2023-01-19T13:46:50.787Z,99902.00
2023-01-19T13:49:24.114Z,99898.94
2023-01-19T13:52:08.221Z,99897.38
2023-01-19T13:54:38.245Z,99889.41
2023-01-19T13:57:08.237Z,99897.41
2023-01-19T13:59:40.977Z,99904.16
2023-01-19T14:02:16.929Z,99899.59
2023-01-19T14:04:47.149Z,99895.97
2023-01-19T14:07:26.457Z,99913.28
2023-01-19T14:10:07.305Z,99938.00
2023-01-19T14:12:45.583Z,99920.09
2023-01-19T14:15:23.952Z,99913.75
2023-01-19T14:18:25.194Z,99922.94
2023-01-19T14:20:57.055Z,99915.09
2023-01-19T14:23:41.988Z,99933.44
2023-01-19T14:26:52.046Z,99933.97
2023-01-19T14:29:26.515Z,99934.03
2023-01-19T14:32:09.972Z,99921.03
2023-01-19T14:34:42.024Z,99924.38
2023-01-19T14:37:29.804Z,99924.34
2023-01-19T14:40:04.847Z,99929.78
2023-01-19T14:42:37.703Z,99923.72
2023-01-19T14:45:21.316Z,99926.03
2023-01-19T14:48:01.187Z,99924.50
2023-01-19T14:50:35.422Z,99934.31
2023-01-19T14:53:07.587Z,99924.59
2023-01-19T14:55:41.396Z,99931.56
2023-01-19T14:58:13.934Z,99935.88
2023-01-19T15:00:43.980Z,99940.50
2023-01-19T15:03:16.707Z,99943.66
2023-01-19T15:05:49.548Z,99940.16
2023-01-19T15:08:22.887Z,99935.28
2023-01-19T15:10:52.934Z,99940.00
2023-01-19T15:13:25.472Z,99940.47
2023-01-19T15:15:55.784Z,99946.38
2023-01-19T15:18:30.279Z,99953.16
2023-01-19T15:21:02.892Z,99952.56
2023-01-19T15:23:32.965Z,99949.88
2023-01-19T15:26:04.075Z,99953.44
2023-01-19T15:28:34.427Z,99954.31
2023-01-19T15:31:04.447Z,99946.94
2023-01-19T15:33:37.314Z,99948.75
2023-01-19T15:36:08.400Z,99955.88
2023-01-19T15:38:38.548Z,99956.69
2023-01-19T15:41:15.122Z,99955.16
2023-01-19T15:43:45.117Z,99965.81
2023-01-19T15:46:17.480Z,99960.38
2023-01-19T15:48:50.391Z,99958.69
2023-01-19T15:51:22.235Z,99961.44
2023-01-19T15:53:52.996Z,99961.94
2023-01-19T15:56:27.670Z,99958.81
2023-01-19T15:58:58.730Z,99964.31
2023-01-19T16:01:32.762Z,99961.22
2023-01-19T16:04:07.298Z,99960.75
2023-01-19T16:06:37.245Z,99961.09
2023-01-19T16:09:07.773Z,99962.06
2023-01-19T16:11:38.399Z,99959.56
2023-01-19T16:14:08.466Z,99959.69
2023-01-19T16:16:38.707Z,99962.06
2023-01-19T16:19:11.376Z,99957.06
2023-01-19T16:21:41.371Z,99965.16
2023-01-19T16:24:11.552Z,99961.22
2023-01-19T16:26:41.543Z,99965.75
2023-01-19T16:29:12.161Z,99964.53
2023-01-19T16:31:45.561Z,99973.78
2023-01-19T16:34:18.277Z,99969.16
2023-01-19T16:36:48.333Z,99974.84
2023-01-19T16:39:33.738Z,99962.16
2023-01-19T16:42:04.013Z,99964.28
2023-01-19T16:44:33.951Z,99973.19
2023-01-19T16:47:04.289Z,99972.47
2023-01-19T16:49:37.036Z,99969.97
2023-01-19T16:52:07.330Z,99972.25
2023-01-19T16:54:39.416Z,99983.41
2023-01-19T16:57:09.471Z,99978.03
2023-01-19T16:59:40.047Z,99984.69
2023-01-19T17:02:11.098Z,99978.06
2023-01-19T17:04:43.754Z,99975.22
2023-01-19T17:07:19.388Z,99980.66
2023-01-19T17:09:49.537Z,99981.25
2023-01-19T17:12:19.481Z,99979.94
2023-01-19T17:14:52.674Z,99979.84
2023-01-19T17:17:22.867Z,99982.56
2023-01-19T17:19:55.653Z,99987.31
2023-01-19T17:22:25.684Z,99979.59
2023-01-19T17:24:55.709Z,99985.91
2023-01-19T17:27:26.162Z,99995.03
2023-01-19T17:29:59.721Z,99982.34
2023-01-19T17:32:30.808Z,99994.34
2023-01-19T17:35:04.521Z,99994.22
2023-01-19T17:37:34.527Z,99995.41
2023-01-19T17:40:04.574Z,100000.63
2023-01-19T17:42:42.518Z,99996.72
2023-01-19T17:45:27.783Z,100005.84
2023-01-19T17:47:57.821Z,100006.81
2023-01-19T17:50:30.428Z,100004.56
2023-01-19T17:53:00.421Z,100002.31
2023-01-19T17:55:30.479Z,100009.66
2023-01-19T17:58:03.672Z,100013.56
2023-01-19T18:00:33.686Z,100020.13
2023-01-19T18:03:03.898Z,100022.13
2023-01-19T18:05:36.572Z,100023.06
2023-01-19T18:08:10.272Z,100017.25
2023-01-19T18:10:40.946Z,100019.41
2023-01-19T18:13:11.051Z,100020.13
2023-01-19T18:15:42.728Z,100030.56
2023-01-19T18:18:12.774Z,100028.44
2023-01-19T18:20:45.845Z,100027.25
2023-01-19T18:23:16.138Z,100027.38
2023-01-19T18:25:48.606Z,100026.41
2023-01-19T18:28:18.614Z,100028.19
2023-01-19T18:30:49.178Z,100038.78
2023-01-19T18:33:19.343Z,100039.25
2023-01-19T18:35:54.981Z,100036.63
2023-01-19T18:38:27.402Z,100039.13
2023-01-19T18:41:04.190Z,100037.00
2023-01-19T18:43:34.643Z,100034.59
2023-01-19T18:46:05.450Z,100035.44
2023-01-19T18:48:42.946Z,100041.38
2023-01-19T18:51:17.623Z,100037.94
2023-01-19T18:53:48.868Z,100035.53
2023-01-19T18:56:20.226Z,100033.63
2023-01-19T18:58:50.464Z,100044.81
2023-01-19T19:01:23.629Z,100051.72
2023-01-19T19:03:56.179Z,100049.81
2023-01-19T19:06:31.913Z,100054.47
2023-01-19T19:09:02.040Z,100063.38
2023-01-19T19:11:32.234Z,100059.09
2023-01-19T19:14:07.426Z,100059.56
2023-01-19T19:16:39.483Z,100058.84
2023-01-19T19:19:11.952Z,100069.28
2023-01-19T19:21:46.926Z,100071.69
2023-01-19T19:24:19.922Z,100066.94
2023-01-19T19:26:55.156Z,100079.84
2023-01-19T19:29:26.252Z,100079.84
2023-01-19T19:31:56.997Z,100076.88
2023-01-19T19:34:27.968Z,100086.38
2023-01-19T19:37:01.407Z,100091.66
2023-01-19T19:39:34.267Z,100090.94
2023-01-19T19:42:05.892Z,100089.84
2023-01-19T19:44:36.154Z,100101.16
2023-01-19T19:47:06.194Z,100099.00
2023-01-19T19:49:39.172Z,100100.66
2023-01-19T19:52:14.001Z,100104.59
2023-01-19T19:54:49.057Z,100102.09
2023-01-19T19:57:18.959Z,100101.38
2023-01-19T19:59:51.704Z,100104.81
2023-01-19T20:02:23.302Z,100113.84
2023-01-19T20:04:53.231Z,100106.25
2023-01-19T20:07:25.804Z,100110.66
2023-01-19T20:09:56.187Z,100119.69
2023-01-19T20:12:26.247Z,100111.00
2023-01-19T20:14:56.174Z,100116.50
2023-01-19T20:17:26.347Z,100113.63
2023-01-19T20:19:56.340Z,100127.53
2023-01-19T20:22:29.025Z,100129.06
2023-01-19T20:24:59.196Z,100130.84
2023-01-19T20:27:29.288Z,100136.69
2023-01-19T20:30:00.389Z,100134.78
2023-01-19T20:32:30.334Z,100129.19
2023-01-19T20:35:00.289Z,100136.94
2023-01-19T20:37:32.876Z,100140.38
2023-01-19T20:40:02.798Z,100148.31
2023-01-19T20:42:32.768Z,100141.66
2023-01-19T20:45:02.774Z,100151.06
2023-01-19T20:47:32.899Z,100148.69
2023-01-19T20:50:02.949Z,100145.09
2023-01-19T20:52:37.471Z,100145.81
2023-01-19T20:55:08.938Z,100144.88
2023-01-19T20:57:38.918Z,100149.53
2023-01-19T21:00:10.256Z,100157.25
2023-01-19T21:02:40.381Z,100157.00
2023-01-19T21:05:12.236Z,100158.91
2023-01-19T21:07:45.111Z,100162.47
2023-01-19T21:10:16.362Z,100161.16
2023-01-19T21:12:46.650Z,100166.41
2023-01-19T21:15:18.064Z,100174.38
2023-01-19T21:17:47.984Z,100167.72
2023-01-19T21:20:18.207Z,100178.53
2023-01-19T21:22:50.839Z,100179.25
2023-01-19T21:25:20.971Z,100183.16
2023-01-19T21:27:50.955Z,100185.66
2023-01-19T21:30:23.898Z,100184.25
2023-01-19T21:32:53.892Z,100197.78
2023-01-19T21:35:26.682Z,100193.16
2023-01-19T21:38:00.638Z,100208.84
2023-01-19T21:40:30.941Z,100205.53
2023-01-19T21:43:01.161Z,100213.38
2023-01-19T21:45:31.355Z,100209.81
2023-01-19T21:48:01.387Z,100218.47
2023-01-19T21:50:31.842Z,100218.13
2023-01-19T21:53:06.023Z,100223.13
2023-01-19T21:55:36.786Z,100232.63
2023-01-19T21:58:07.479Z,100228.13
2023-01-19T22:00:37.502Z,100224.91
2023-01-19T22:03:09.315Z,100231.81
2023-01-19T22:05:40.084Z,100233.09
2023-01-19T22:08:13.052Z,100234.31
2023-01-19T22:10:43.011Z,100244.53
2023-01-19T22:13:13.034Z,100238.69
2023-01-19T22:15:43.107Z,100244.19
2023-01-19T22:18:13.313Z,100254.75
2023-01-19T22:20:43.424Z,100257.38
2023-01-19T22:23:16.130Z,100258.09
2023-01-19T22:25:46.224Z,100266.31
2023-01-19T22:28:16.279Z,100265.47
2023-01-19T22:30:46.370Z,100263.44
2023-01-19T22:33:16.392Z,100270.59
2023-01-19T22:35:46.482Z,100271.53
2023-01-19T22:38:19.155Z,100279.28
2023-01-19T22:40:49.174Z,100275.97
2023-01-19T22:43:19.151Z,100277.63
2023-01-19T22:45:49.104Z,100278.56
2023-01-19T22:48:20.179Z,100273.09
2023-01-19T22:50:50.345Z,100271.31
2023-01-19T22:53:22.908Z,100281.41
2023-01-19T22:55:52.848Z,100276.06
2023-01-19T22:58:23.006Z,100278.69
2023-01-19T23:00:53.110Z,100277.72
2023-01-19T23:03:23.147Z,100281.78
2023-01-19T23:05:53.151Z,100284.03
2023-01-19T23:08:25.896Z,100280.25
2023-01-19T23:10:55.837Z,100282.59
2023-01-19T23:13:25.892Z,100284.38
2023-01-19T23:15:55.960Z,100289.84
2023-01-19T23:18:26.133Z,100290.56
2023-01-19T23:20:56.151Z,100288.44
2023-01-19T23:23:29.028Z,100297.94
2023-01-19T23:26:02.708Z,100294.28
2023-01-19T23:28:34.135Z,100292.00
2023-01-19T23:31:04.352Z,100295.94
2023-01-19T23:33:34.406Z,100307.38
2023-01-19T23:36:04.615Z,100309.03
2023-01-19T23:38:37.296Z,100307.59
2023-01-19T23:41:07.637Z,100302.63
2023-01-19T23:43:37.673Z,100303.31
2023-01-19T23:46:09.067Z,100308.19
2023-01-19T23:48:39.350Z,100311.28
2023-01-19T23:51:10.407Z,100309.84
2023-01-19T23:53:43.281Z,100314.72
2023-01-19T23:56:14.794Z,100315.19
2023-01-19T23:58:45.224Z,100313.78
